Time;durP1;ratioP1;P1;durP2;ratioP2;P2;SDS_P1;SDS_P2;PMS_P1;PMS_P2;Temp;Humidity;BMP_temperature;BMP_pressure;BME280_temperature;BME280_humidity;BME280_pressure;Samples;Min_cycle;Max_cycle;Signal;HPM_P1;HPM_P2
2021/08/19 00:01:17;;;;;;;3.03;2.67;;;15.40;99.90;;;;;;4998789;28;20199;-59
2021/08/19 00:03:45;;;;;;;2.28;2.17;;;15.70;99.90;;;;;;4999250;28;20230;-59
2021/08/19 00:06:13;;;;;;;2.35;2.15;;;15.70;99.90;;;;;;4998547;28;20229;-60
2021/08/19 00:08:40;;;;;;;3.65;2.35;;;15.80;99.90;;;;;;4990968;28;20416;-58
2021/08/19 00:11:12;;;;;;;2.30;2.15;;;15.90;99.90;;;;;;4979915;28;20207;-58
2021/08/19 00:13:39;;;;;;;2.27;2.07;;;16.00;99.90;;;;;;4986442;28;20203;-59
2021/08/19 00:16:07;;;;;;;2.17;1.98;;;16.20;99.90;;;;;;4985943;28;20440;-59
2021/08/19 00:18:38;;;;;;;2.53;2.35;;;16.30;99.90;;;;;;5008680;28;20223;-58
2021/08/19 00:21:06;;;;;;;2.38;2.28;;;16.30;99.90;;;;;;4993815;28;20276;-59
2021/08/19 00:23:35;;;;;;;2.65;2.10;;;16.20;99.90;;;;;;4987868;28;20208;-58
2021/08/19 00:26:03;;;;;;;2.40;2.00;;;16.30;99.90;;;;;;5001530;28;20233;-58
2021/08/19 00:28:31;;;;;;;2.30;2.20;;;16.40;99.90;;;;;;4991326;28;20450;-59
2021/08/19 00:30:58;;;;;;;2.37;2.20;;;16.60;99.90;;;;;;4996282;28;20449;-59
2021/08/19 00:33:25;;;;;;;2.30;1.90;;;16.50;99.90;;;;;;4998779;28;20503;-59
2021/08/19 00:35:52;;;;;;;3.27;2.33;;;16.50;99.90;;;;;;4984616;28;20433;-59
2021/08/19 00:38:19;;;;;;;5.90;2.37;;;16.60;99.90;;;;;;4997639;28;20716;-59
2021/08/19 00:40:46;;;;;;;2.20;2.10;;;16.70;99.90;;;;;;4998504;28;20449;-59
2021/08/19 00:43:13;;;;;;;2.53;2.33;;;16.50;99.90;;;;;;4997816;28;20829;-58
2021/08/19 00:45:40;;;;;;;2.07;1.97;;;16.50;99.90;;;;;;4997923;28;20441;-59
2021/08/19 00:48:08;;;;;;;3.03;2.47;;;16.50;99.90;;;;;;4997295;28;20436;-58
2021/08/19 00:50:37;;;;;;;2.70;2.50;;;16.30;99.90;;;;;;4998447;28;20543;-60
2021/08/19 00:53:05;;;;;;;2.90;2.70;;;16.10;99.90;;;;;;4998298;28;20442;-60
2021/08/19 00:55:32;;;;;;;2.00;1.90;;;16.20;99.90;;;;;;4996896;28;20604;-60
2021/08/19 00:57:59;;;;;;;2.23;2.13;;;16.20;99.90;;;;;;4997780;28;20445;-59
2021/08/19 01:00:26;;;;;;;2.80;2.55;;;16.10;99.90;;;;;;4998255;28;20586;-59
2021/08/19 01:02:57;;;;;;;2.45;2.35;;;16.00;99.90;;;;;;4997145;28;20220;-59
2021/08/19 01:05:31;;;;;;;2.80;2.60;;;16.00;99.90;;;;;;4996875;28;20266;-58
2021/08/19 01:07:59;;;;;;;4.13;2.50;;;15.80;99.90;;;;;;4997326;28;20435;-59
2021/08/19 01:10:27;;;;;;;2.95;2.72;;;15.80;99.90;;;;;;4997846;28;20535;-59
2021/08/19 01:12:54;;;;;;;2.47;2.28;;;15.60;99.90;;;;;;5027615;28;20203;-60
2021/08/19 01:15:22;;;;;;;2.42;2.05;;;15.70;99.90;;;;;;4985865;28;20486;-59
2021/08/19 01:17:58;;;;;;;2.03;1.92;;;15.50;99.90;;;;;;4997714;28;20427;-59
2021/08/19 01:20:33;;;;;;;3.38;3.08;;;15.40;99.90;;;;;;4991032;28;20210;-59
2021/08/19 01:23:01;;;;;;;2.00;1.90;;;15.40;99.90;;;;;;4992145;28;20202;-58
2021/08/19 01:25:29;;;;;;;2.50;2.30;;;15.40;99.90;;;;;;5016944;28;20212;-59
2021/08/19 01:27:57;;;;;;;2.22;2.03;;;15.50;99.90;;;;;;4992341;28;20298;-59
2021/08/19 01:30:25;;;;;;;2.15;2.05;;;15.60;99.90;;;;;;4984136;28;20435;-58
2021/08/19 01:32:52;;;;;;;3.15;2.83;;;15.60;99.90;;;;;;4988544;28;20498;-58
2021/08/19 01:35:26;;;;;;;2.47;2.28;;;15.60;99.90;;;;;;4996434;28;20238;-59
2021/08/19 01:37:54;;;;;;;4.97;2.95;;;15.50;99.90;;;;;;4996074;28;20206;-58
2021/08/19 01:40:21;;;;;;;7.57;2.70;;;15.50;99.90;;;;;;5001217;28;20244;-59
2021/08/19 01:42:48;;;;;;;2.75;2.55;;;15.50;99.90;;;;;;4984462;28;20201;-58
2021/08/19 01:45:16;;;;;;;3.17;2.95;;;15.40;99.90;;;;;;5001247;28;20213;-59
2021/08/19 01:47:44;;;;;;;2.92;2.70;;;15.30;99.90;;;;;;5000687;28;20206;-59
2021/08/19 01:50:11;;;;;;;2.80;2.60;;;15.20;99.90;;;;;;5011428;28;20253;-59
2021/08/19 01:52:43;;;;;;;3.17;2.90;;;15.30;99.90;;;;;;4996507;28;20365;-59
2021/08/19 01:55:11;;;;;;;3.92;3.63;;;15.30;99.90;;;;;;4997444;28;20703;-59
2021/08/19 01:57:38;;;;;;;3.10;2.90;;;15.30;99.90;;;;;;4988754;28;20202;-59
2021/08/19 02:00:05;;;;;;;3.00;2.70;;;15.10;99.90;;;;;;5003513;28;20202;-59
2021/08/19 02:02:33;;;;;;;3.13;2.83;;;15.10;99.90;;;;;;4983117;28;20198;-58
2021/08/19 02:05:00;;;;;;;3.13;2.83;;;15.10;99.90;;;;;;4997563;28;20208;-59
2021/08/19 02:07:27;;;;;;;3.28;2.97;;;15.00;99.90;;;;;;5009647;28;20296;-58
2021/08/19 02:09:54;;;;;;;3.35;3.05;;;15.20;99.90;;;;;;5003580;28;20241;-60
2021/08/19 02:12:21;;;;;;;3.03;2.67;;;15.30;99.90;;;;;;4981811;28;20207;-59
2021/08/19 02:14:48;;;;;;;4.75;3.45;;;15.20;99.90;;;;;;4982878;28;20198;-59
2021/08/19 02:17:15;;;;;;;3.10;2.85;;;15.10;99.90;;;;;;4992588;28;20241;-59
2021/08/19 02:19:42;;;;;;;3.42;3.22;;;15.20;99.90;;;;;;4993180;28;20256;-59
2021/08/19 02:22:09;;;;;;;2.40;2.20;;;15.30;99.90;;;;;;4988442;28;20559;-58
2021/08/19 02:24:36;;;;;;;2.60;2.40;;;15.40;99.90;;;;;;4997178;28;20288;-60
2021/08/19 02:27:03;;;;;;;3.75;3.45;;;15.60;99.90;;;;;;4997439;28;20424;-59
2021/08/19 02:29:30;;;;;;;3.58;3.28;;;15.70;99.90;;;;;;4985016;28;20461;-59
2021/08/19 02:31:57;;;;;;;3.13;2.92;;;15.70;99.90;;;;;;4996312;28;20227;-59
2021/08/19 02:34:24;;;;;;;3.10;2.80;;;15.90;99.90;;;;;;4985633;28;20205;-59
2021/08/19 02:36:51;;;;;;;2.33;2.15;;;16.00;99.90;;;;;;4992472;28;20224;-59
2021/08/19 02:39:18;;;;;;;2.95;2.70;;;16.00;99.90;;;;;;4998338;28;20226;-59
2021/08/19 02:41:45;;;;;;;3.70;2.63;;;16.10;99.90;;;;;;4986106;28;20686;-59
2021/08/19 02:44:12;;;;;;;6.05;3.30;;;16.00;99.90;;;;;;4988785;28;20200;-59
2021/08/19 02:46:39;;;;;;;2.83;2.63;;;16.00;99.90;;;;;;4982162;28;20219;-58
2021/08/19 02:49:06;;;;;;;3.80;3.50;;;16.10;99.90;;;;;;4996793;28;20203;-57
2021/08/19 02:51:33;;;;;;;3.00;2.80;;;16.00;99.90;;;;;;4982820;28;20494;-59
2021/08/19 02:54:00;;;;;;;2.90;2.70;;;15.70;99.90;;;;;;4977002;28;20247;-60
2021/08/19 02:56:27;;;;;;;3.28;2.67;;;16.00;99.90;;;;;;4988510;28;20269;-59
2021/08/19 02:58:54;;;;;;;3.40;3.10;;;16.10;99.90;;;;;;4996379;28;20428;-59
2021/08/19 03:01:21;;;;;;;3.70;2.60;;;16.00;99.90;;;;;;4999945;28;20450;-57
2021/08/19 03:03:49;;;;;;;3.23;3.03;;;16.20;99.90;;;;;;4986218;28;20215;-60
2021/08/19 03:06:16;;;;;;;3.13;2.83;;;16.40;99.90;;;;;;5008623;28;20480;-59
2021/08/19 03:08:43;;;;;;;4.40;3.37;;;16.40;99.90;;;;;;4990069;28;20208;-60
2021/08/19 03:11:10;;;;;;;3.85;2.95;;;16.50;99.90;;;;;;4980862;28;20478;-58
2021/08/19 03:13:37;;;;;;;7.90;3.42;;;16.40;99.90;;;;;;5006425;28;20253;-59
2021/08/19 03:16:04;;;;;;;3.65;3.08;;;16.40;99.90;;;;;;5008812;28;20238;-59
2021/08/19 03:18:32;;;;;;;3.55;2.90;;;16.60;99.90;;;;;;4991608;28;20301;-59
2021/08/19 03:21:00;;;;;;;3.23;3.03;;;16.60;99.90;;;;;;5000647;28;20205;-59
2021/08/19 03:23:27;;;;;;;3.07;2.87;;;16.70;99.90;;;;;;5017245;28;20472;-59
2021/08/19 03:25:54;;;;;;;3.77;3.37;;;16.70;99.90;;;;;;5003380;28;20810;-59
2021/08/19 03:28:23;;;;;;;3.07;2.87;;;16.50;99.90;;;;;;4989387;28;20455;-59
2021/08/19 03:30:50;;;;;;;3.00;2.77;;;16.50;99.90;;;;;;4999863;28;20537;-59
2021/08/19 03:33:18;;;;;;;3.70;3.40;;;16.40;99.90;;;;;;4995573;28;20626;-59
2021/08/19 03:35:45;;;;;;;3.10;2.90;;;16.40;99.90;;;;;;4983266;28;20323;-59
2021/08/19 03:38:13;;;;;;;3.50;3.20;;;16.50;99.90;;;;;;5002472;28;20628;-59
2021/08/19 03:40:40;;;;;;;3.67;3.37;;;16.50;99.90;;;;;;4998739;28;20424;-59
2021/08/19 03:43:07;;;;;;;3.67;3.38;;;16.50;99.90;;;;;;4986355;28;20484;-58
2021/08/19 03:45:34;;;;;;;3.10;2.80;;;16.40;99.90;;;;;;4999407;28;20231;-59
2021/08/19 03:48:01;;;;;;;3.83;3.00;;;16.40;99.90;;;;;;4999408;28;20411;-59
2021/08/19 03:50:28;;;;;;;5.00;3.83;;;16.30;99.90;;;;;;4985358;28;20480;-62
2021/08/19 03:52:55;;;;;;;3.20;3.00;;;16.30;99.90;;;;;;5000135;28;20442;-58
2021/08/19 03:55:22;;;;;;;3.87;3.57;;;16.40;99.90;;;;;;4998981;28;20633;-59
2021/08/19 03:57:49;;;;;;;4.28;3.05;;;16.40;99.90;;;;;;4999297;28;20440;-59
2021/08/19 04:00:17;;;;;;;3.20;3.00;;;16.40;99.90;;;;;;4992081;28;20249;-59
2021/08/19 04:02:46;;;;;;;3.43;3.13;;;16.40;99.90;;;;;;4987428;28;20803;-59
2021/08/19 04:05:15;;;;;;;4.30;3.90;;;16.40;99.90;;;;;;4998513;28;20822;-58
2021/08/19 04:07:42;;;;;;;4.50;4.13;;;16.40;99.90;;;;;;4987107;28;20470;-58
2021/08/19 04:10:10;;;;;;;9.83;3.70;;;16.50;99.90;;;;;;5000340;28;21138;-59
2021/08/19 04:12:37;;;;;;;4.40;3.60;;;16.60;99.90;;;;;;5031512;28;20767;-59
2021/08/19 04:15:06;;;;;;;3.30;3.03;;;16.70;99.90;;;;;;5001384;28;20598;-60
2021/08/19 04:17:33;;;;;;;3.97;3.67;;;16.70;99.90;;;;;;5030129;28;20494;-58
2021/08/19 04:20:00;;;;;;;5.43;4.90;;;16.70;99.90;;;;;;4993642;28;20497;-59
2021/08/19 04:22:27;;;;;;;6.37;5.77;;;16.60;99.90;;;;;;4994986;28;20499;-60
2021/08/19 04:24:54;;;;;;;7.17;6.57;;;16.80;99.90;;;;;;5015211;28;20437;-60
2021/08/19 04:27:21;;;;;;;9.07;8.37;;;17.00;99.90;;;;;;5014916;28;20448;-59
2021/08/19 04:29:48;;;;;;;8.43;7.63;;;17.00;99.90;;;;;;4991159;28;20436;-59
2021/08/19 04:32:16;;;;;;;16.43;8.00;;;17.10;99.90;;;;;;5005240;28;20483;-58
2021/08/19 04:34:43;;;;;;;6.53;5.97;;;17.30;99.90;;;;;;4984911;28;20506;-58
2021/08/19 04:37:10;;;;;;;6.57;5.63;;;17.30;99.90;;;;;;4998677;28;20481;-60
2021/08/19 04:39:37;;;;;;;7.83;5.50;;;17.40;99.90;;;;;;5000816;28;20448;-59
2021/08/19 04:42:04;;;;;;;5.17;4.77;;;17.50;99.90;;;;;;4998374;28;20493;-58
2021/08/19 04:44:31;;;;;;;4.60;4.30;;;17.60;99.90;;;;;;4986409;28;20441;-58
2021/08/19 04:46:58;;;;;;;5.00;4.60;;;17.60;99.90;;;;;;4994116;28;20635;-59
2021/08/19 04:49:26;;;;;;;4.03;3.73;;;17.60;99.90;;;;;;5001353;28;20833;-59
2021/08/19 04:51:53;;;;;;;5.70;3.30;;;17.70;99.90;;;;;;5001462;28;20869;-59
2021/08/19 04:54:20;;;;;;;4.50;4.10;;;17.60;99.90;;;;;;4997899;28;20865;-58
2021/08/19 04:56:47;;;;;;;3.70;3.47;;;17.60;99.90;;;;;;4997062;28;20439;-58
2021/08/19 04:59:15;;;;;;;4.57;4.27;;;17.50;99.90;;;;;;4985007;28;20447;-58
2021/08/19 05:01:42;;;;;;;8.23;4.67;;;17.60;99.90;;;;;;4997428;28;20481;-59
2021/08/19 05:04:09;;;;;;;5.40;4.33;;;17.70;99.90;;;;;;4997653;28;20433;-59
2021/08/19 05:06:37;;;;;;;4.30;4.00;;;17.70;99.90;;;;;;4986744;28;20469;-59
2021/08/19 05:09:06;;;;;;;5.17;3.77;;;17.70;99.90;;;;;;4991542;28;20658;-59
2021/08/19 05:11:34;;;;;;;3.77;3.53;;;17.90;99.90;;;;;;4988774;28;20485;-59
2021/08/19 05:14:03;;;;;;;4.33;4.00;;;17.80;99.90;;;;;;4997233;28;20420;-59
2021/08/19 05:16:32;;;;;;;4.23;3.90;;;17.80;99.90;;;;;;4997797;28;20760;-59
2021/08/19 05:18:59;;;;;;;4.10;3.80;;;17.90;99.90;;;;;;4997739;28;20479;-60
2021/08/19 05:21:26;;;;;;;4.93;4.47;;;18.00;99.90;;;;;;4986141;28;20439;-58
2021/08/19 05:23:53;;;;;;;4.93;4.33;;;18.00;99.90;;;;;;4986019;28;20448;-59
2021/08/19 05:26:20;;;;;;;4.40;4.10;;;18.10;99.90;;;;;;5005955;28;20447;-58
2021/08/19 05:28:48;;;;;;;4.07;3.77;;;18.10;99.90;;;;;;4988158;28;20444;-60
2021/08/19 05:31:15;;;;;;;4.63;4.27;;;18.30;99.90;;;;;;4985975;28;20536;-60
2021/08/19 05:33:42;;;;;;;3.90;3.70;;;18.20;99.90;;;;;;4998560;28;20468;-59
2021/08/19 05:36:10;;;;;;;4.23;3.93;;;18.40;99.90;;;;;;4982475;28;20446;-59
2021/08/19 05:38:39;;;;;;;3.70;3.50;;;18.40;99.90;;;;;;5004078;28;20446;-60
2021/08/19 05:41:07;;;;;;;4.97;4.67;;;18.40;99.90;;;;;;4990109;28;20444;-59
2021/08/19 05:43:34;;;;;;;5.90;5.50;;;18.40;99.90;;;;;;4991815;28;20483;-58
2021/08/19 05:46:01;;;;;;;5.10;4.70;;;18.30;99.90;;;;;;4991490;28;20442;-59
2021/08/19 05:48:28;;;;;;;5.60;5.20;;;18.40;99.90;;;;;;4994927;28;20443;-59
2021/08/19 05:50:55;;;;;;;6.80;4.50;;;18.60;99.90;;;;;;4996896;28;20453;-59
2021/08/19 05:53:22;;;;;;;4.10;3.90;;;18.60;99.90;;;;;;4996057;28;20438;-61
2021/08/19 05:55:49;;;;;;;4.10;3.80;;;18.70;99.90;;;;;;4996265;28;20700;-60
2021/08/19 05:58:16;;;;;;;4.93;4.53;;;19.00;99.90;;;;;;4996661;28;20787;-60
2021/08/19 06:00:48;;;;;;;4.73;4.33;;;19.00;99.90;;;;;;4996022;28;20425;-59
2021/08/19 06:03:16;;;;;;;4.07;3.87;;;19.20;99.90;;;;;;4995817;28;20754;-59
2021/08/19 06:05:43;;;;;;;4.50;4.20;;;19.20;99.90;;;;;;5009856;28;20603;-59
2021/08/19 06:08:10;;;;;;;6.90;5.30;;;19.30;99.90;;;;;;4996218;28;20435;-59
2021/08/19 06:10:37;;;;;;;5.20;4.70;;;19.30;99.90;;;;;;5010974;28;20453;-59
2021/08/19 06:13:04;;;;;;;5.40;4.97;;;19.40;99.90;;;;;;4988618;28;20437;-59
2021/08/19 06:15:32;;;;;;;6.20;5.80;;;19.60;99.90;;;;;;4991929;28;20449;-59
2021/08/19 06:17:59;;;;;;;5.50;5.10;;;19.90;99.90;;;;;;4996963;28;20552;-59
2021/08/19 06:20:27;;;;;;;5.30;4.80;;;19.90;99.90;;;;;;4998385;28;20794;-59
2021/08/19 06:22:55;;;;;;;6.03;5.53;;;20.10;99.90;;;;;;5005525;28;20436;-59
2021/08/19 06:25:23;;;;;;;5.77;5.40;;;20.00;99.90;;;;;;4998745;28;20421;-59
2021/08/19 06:27:53;;;;;;;6.00;4.93;;;20.00;99.90;;;;;;4987352;28;20410;-59
2021/08/19 06:30:20;;;;;;;5.40;5.00;;;20.20;99.90;;;;;;4996937;28;20439;-59
2021/08/19 06:32:47;;;;;;;5.07;4.67;;;20.30;99.90;;;;;;4996721;28;20410;-59
2021/08/19 06:35:15;;;;;;;5.50;5.00;;;20.40;99.90;;;;;;5010870;28;20462;-59
2021/08/19 06:37:42;;;;;;;4.73;4.33;;;20.50;99.90;;;;;;5000812;28;20411;-59
2021/08/19 06:40:09;;;;;;;4.40;4.10;;;20.70;99.90;;;;;;4995602;28;20434;-59
2021/08/19 06:42:36;;;;;;;4.80;4.10;;;20.80;99.90;;;;;;4994963;28;21050;-58
2021/08/19 06:45:04;;;;;;;5.20;4.80;;;20.90;99.90;;;;;;5012505;28;20484;-58
2021/08/19 06:47:31;;;;;;;6.90;5.80;;;21.10;99.90;;;;;;4999456;28;20412;-59
2021/08/19 06:49:58;;;;;;;5.70;5.30;;;21.10;99.90;;;;;;5013997;28;20438;-58
2021/08/19 06:52:25;;;;;;;5.97;5.57;;;21.30;99.90;;;;;;5000285;28;20574;-58
2021/08/19 06:54:52;;;;;;;6.73;5.47;;;21.30;99.90;;;;;;4999824;28;20500;-59
2021/08/19 06:57:19;;;;;;;6.20;5.63;;;21.30;99.90;;;;;;5004717;28;20410;-60
2021/08/19 06:59:46;;;;;;;5.87;5.13;;;21.40;99.90;;;;;;5009156;28;20411;-59
2021/08/19 07:02:14;;;;;;;6.40;6.00;;;21.70;99.90;;;;;;5013379;28;20481;-59
2021/08/19 07:04:42;;;;;;;6.90;6.20;;;22.10;99.90;;;;;;5005725;28;20976;-59
2021/08/19 07:07:09;;;;;;;6.63;6.23;;;22.10;99.90;;;;;;4998139;28;20519;-61
2021/08/19 07:09:36;;;;;;;6.70;6.27;;;22.20;99.90;;;;;;5005077;28;20478;-60
2021/08/19 07:12:03;;;;;;;6.37;5.97;;;22.40;99.90;;;;;;4980882;28;20511;-59
2021/08/19 07:14:30;;;;;;;7.20;6.70;;;22.60;99.90;;;;;;4994292;28;20415;-59
2021/08/19 07:16:57;;;;;;;7.43;6.83;;;22.80;99.90;;;;;;4995822;28;20733;-59
2021/08/19 07:19:24;;;;;;;7.10;6.53;;;23.20;99.90;;;;;;4992859;28;20743;-59
2021/08/19 07:21:52;;;;;;;7.07;6.57;;;23.60;99.90;;;;;;4994359;28;20432;-60
2021/08/19 07:24:19;;;;;;;7.37;6.67;;;23.80;99.90;;;;;;5000049;28;20435;-60
2021/08/19 07:26:46;;;;;;;6.77;6.27;;;23.90;99.90;;;;;;5000943;28;20409;-60
2021/08/19 07:29:14;;;;;;;7.73;6.93;;;23.90;99.90;;;;;;5011241;28;20432;-60
2021/08/19 07:31:41;;;;;;;6.90;6.43;;;23.90;99.90;;;;;;5005687;28;20489;-58
2021/08/19 07:34:08;;;;;;;6.03;5.60;;;23.80;99.90;;;;;;5005534;28;20461;-60
2021/08/19 07:36:36;;;;;;;6.60;6.10;;;23.70;99.90;;;;;;4997781;28;20627;-59
2021/08/19 07:39:05;;;;;;;7.43;6.87;;;23.90;99.90;;;;;;4992262;28;20456;-59
2021/08/19 07:41:34;;;;;;;6.93;6.33;;;23.90;99.90;;;;;;5007642;28;20444;-59
2021/08/19 07:44:02;;;;;;;6.77;6.27;;;24.10;99.90;;;;;;4992078;28;20609;-56
2021/08/19 07:46:30;;;;;;;9.30;8.40;;;24.30;99.90;;;;;;5011253;28;20410;-59
2021/08/19 07:48:58;;;;;;;7.50;7.00;;;24.90;99.90;;;;;;4986588;28;20411;-59
2021/08/19 07:51:25;;;;;;;7.67;6.87;;;25.00;99.90;;;;;;4999978;28;20501;-57
2021/08/19 07:53:53;;;;;;;6.97;6.60;;;24.90;99.90;;;;;;5002141;28;20435;-59
2021/08/19 07:56:20;;;;;;;7.03;6.63;;;24.80;99.90;;;;;;5008304;28;20415;-59
2021/08/19 07:58:47;;;;;;;7.23;6.80;;;24.80;99.90;;;;;;4985474;28;20748;-59
2021/08/19 08:01:14;;;;;;;6.50;6.07;;;24.90;99.90;;;;;;5007932;28;20452;-60
2021/08/19 08:03:42;;;;;;;6.87;6.47;;;24.40;99.90;;;;;;5018613;28;20413;-59
2021/08/19 08:06:10;;;;;;;6.83;6.33;;;24.30;99.90;;;;;;5011277;28;20467;-59
2021/08/19 08:08:37;;;;;;;7.60;7.10;;;24.80;99.90;;;;;;5012670;28;20435;-59
2021/08/19 08:11:05;;;;;;;7.30;6.80;;;25.90;98.40;;;;;;4985179;28;20476;-59
2021/08/19 08:13:32;;;;;;;7.53;7.00;;;27.10;95.70;;;;;;4986580;28;20440;-60
2021/08/19 08:15:59;;;;;;;12.43;9.13;;;28.50;93.30;;;;;;4997398;28;20410;-59
2021/08/19 08:18:26;;;;;;;6.87;6.43;;;29.00;92.00;;;;;;4998539;28;20436;-59
2021/08/19 08:20:54;;;;;;;7.40;6.83;;;30.00;89.50;;;;;;5000775;28;20773;-59
2021/08/19 08:23:21;;;;;;;7.80;7.40;;;30.70;84.40;;;;;;5009681;28;20502;-59
2021/08/19 08:25:49;;;;;;;8.10;7.60;;;31.20;82.30;;;;;;4991558;28;20452;-60
2021/08/19 08:28:20;;;;;;;9.30;8.50;;;31.80;79.90;;;;;;5002764;28;20447;-60
2021/08/19 08:30:52;;;;;;;8.40;8.00;;;32.30;76.80;;;;;;4991651;28;20488;-60
2021/08/19 08:33:21;;;;;;;8.33;7.93;;;31.70;75.90;;;;;;4997678;28;20479;-59
2021/08/19 08:35:48;;;;;;;9.03;8.53;;;30.90;77.50;;;;;;5001328;28;20777;-59
2021/08/19 08:38:18;;;;;;;7.93;7.43;;;29.60;80.30;;;;;;4989607;28;20434;-58
2021/08/19 08:40:46;;;;;;;8.60;8.10;;;29.00;82.20;;;;;;4995118;28;20440;-59
2021/08/19 08:43:16;;;;;;;8.50;8.10;;;32.30;72.40;;;;;;4999084;28;20524;-61
2021/08/19 08:45:48;;;;;;;9.80;9.10;;;32.40;72.50;;;;;;4997082;28;20446;-60
2021/08/19 08:48:19;;;;;;;8.03;7.73;;;33.20;69.80;;;;;;4994991;28;20441;-60
2021/08/19 08:50:48;;;;;;;9.90;9.30;;;33.40;68.40;;;;;;4984853;28;20501;-60
2021/08/19 08:53:16;;;;;;;8.60;8.10;;;33.10;67.40;;;;;;4988075;28;20465;-60
2021/08/19 08:55:44;;;;;;;8.37;8.07;;;32.40;69.00;;;;;;5010437;28;20491;-60
2021/08/19 08:58:12;;;;;;;9.20;8.60;;;32.60;67.70;;;;;;4997253;28;20451;-59
2021/08/19 09:00:44;;;;;;;8.53;8.13;;;33.80;65.10;;;;;;5001386;28;20438;-59
2021/08/19 09:03:14;;;;;;;8.27;7.87;;;33.20;64.60;;;;;;5005800;28;20439;-60
2021/08/19 09:05:44;;;;;;;8.80;8.40;;;31.40;68.00;;;;;;4983393;28;20431;-60
2021/08/19 09:08:15;;;;;;;7.80;7.40;;;29.20;73.20;;;;;;5006617;28;20594;-59
2021/08/19 09:10:43;;;;;;;7.73;7.33;;;27.50;77.90;;;;;;4996508;28;20432;-59
2021/08/19 09:13:23;;;;;;;7.87;7.47;;;25.90;83.10;;;;;;5005627;28;20484;-58
2021/08/19 09:15:52;;;;;;;7.13;6.73;;;25.10;86.30;;;;;;4996780;28;20495;-58
2021/08/19 09:18:33;;;;;;;7.33;6.83;;;24.70;88.30;;;;;;4995599;28;20441;-59
2021/08/19 09:21:01;;;;;;;7.20;6.73;;;24.60;90.00;;;;;;4996566;28;20442;-61
2021/08/19 09:23:29;;;;;;;6.13;5.93;;;24.50;90.20;;;;;;4989634;28;20627;-60
2021/08/19 09:25:59;;;;;;;6.87;6.57;;;25.00;90.00;;;;;;4996979;28;20439;-59
2021/08/19 09:28:27;;;;;;;7.90;7.40;;;26.80;84.70;;;;;;5011873;28;20416;-60
2021/08/19 09:31:06;;;;;;;7.20;6.80;;;28.20;81.70;;;;;;4984406;28;20483;-58
2021/08/19 09:33:36;;;;;;;7.00;6.60;;;28.90;78.30;;;;;;4993220;28;20804;-60
2021/08/19 09:36:08;;;;;;;8.90;7.20;;;28.40;77.70;;;;;;5000758;28;20466;-58
2021/08/19 09:38:42;;;;;;;7.33;6.93;;;27.40;80.10;;;;;;4985514;28;20447;-60
2021/08/19 09:41:12;;;;;;;7.17;6.87;;;26.60;82.70;;;;;;4996560;28;20496;-59
2021/08/19 09:43:50;;;;;;;7.57;7.07;;;26.40;84.30;;;;;;4996777;28;20440;-59
2021/08/19 09:46:36;;;;;;;7.30;6.90;;;25.60;84.80;;;;;;4985001;28;20417;-60
2021/08/19 09:49:29;;;;;;;6.67;6.27;;;24.90;85.50;;;;;;4996651;28;20449;-60
2021/08/19 09:52:08;;;;;;;6.37;6.07;;;24.10;88.40;;;;;;4998611;28;20525;-60
2021/08/19 09:54:38;;;;;;;6.70;6.30;;;23.40;90.70;;;;;;4996072;28;20450;-60
2021/08/19 09:57:06;;;;;;;7.73;6.83;;;23.00;91.10;;;;;;4985328;28;20435;-60
2021/08/19 09:59:36;;;;;;;6.63;6.23;;;22.80;91.60;;;;;;4990297;28;20425;-60
2021/08/19 10:02:09;;;;;;;5.97;5.67;;;22.70;92.10;;;;;;4998161;28;20447;-59
2021/08/19 10:04:37;;;;;;;6.50;6.00;;;22.90;92.00;;;;;;4999068;28;20471;-59
2021/08/19 10:07:04;;;;;;;6.10;5.80;;;23.10;91.90;;;;;;4991331;28;20446;-59
2021/08/19 10:09:31;;;;;;;6.23;5.87;;;23.00;92.00;;;;;;5004042;28;20448;-60
2021/08/19 10:11:59;;;;;;;7.67;7.00;;;23.10;92.20;;;;;;4977603;28;20447;-60
2021/08/19 10:14:31;;;;;;;6.93;6.40;;;23.30;91.90;;;;;;4982912;28;20481;-59
2021/08/19 10:16:58;;;;;;;6.10;5.80;;;23.60;91.70;;;;;;5009397;28;20647;-61
2021/08/19 10:19:37;;;;;;;5.93;5.57;;;23.70;91.50;;;;;;5010041;28;20770;-60
2021/08/19 10:22:07;;;;;;;5.80;5.50;;;23.70;92.20;;;;;;4996640;28;20440;-59
2021/08/19 10:24:37;;;;;;;6.27;5.70;;;23.60;91.50;;;;;;4987156;28;20405;-60
2021/08/19 10:27:21;;;;;;;5.77;5.47;;;23.70;91.60;;;;;;5004028;28;20472;-59
2021/08/19 10:29:53;;;;;;;6.13;5.73;;;23.90;91.50;;;;;;4982647;28;20806;-60
2021/08/19 10:32:31;;;;;;;6.93;6.53;;;24.20;91.50;;;;;;4996577;28;20578;-60
2021/08/19 10:35:11;;;;;;;7.17;6.60;;;24.30;90.90;;;;;;5001379;28;20447;-60
2021/08/19 10:37:45;;;;;;;6.70;6.17;;;24.40;90.50;;;;;;4990454;28;20399;-60
2021/08/19 10:40:25;;;;;;;7.23;6.63;;;24.60;90.40;;;;;;4990347;28;20434;-60
2021/08/19 10:42:53;;;;;;;6.00;5.70;;;24.80;90.30;;;;;;5003657;28;20971;-60
2021/08/19 10:45:26;;;;;;;6.00;5.70;;;24.90;90.10;;;;;;4979557;28;21049;-60
2021/08/19 10:48:08;;;;;;;6.93;6.53;;;24.90;89.70;;;;;;4991777;28;20607;-60
2021/08/19 10:50:40;;;;;;;6.60;6.20;;;25.10;89.80;;;;;;4990171;28;20729;-60
2021/08/19 10:53:21;;;;;;;6.37;5.90;;;25.40;90.00;;;;;;4989507;28;20872;-60
2021/08/19 10:55:52;;;;;;;6.40;5.90;;;25.30;88.60;;;;;;5002364;28;20461;-60
2021/08/19 10:58:31;;;;;;;6.03;5.63;;;25.40;88.10;;;;;;5033778;28;20685;-60
2021/08/19 11:01:21;;;;;;;5.97;5.67;;;25.20;89.10;;;;;;4989084;28;20411;-59
2021/08/19 11:03:49;;;;;;;6.80;5.20;;;25.00;89.10;;;;;;4982872;28;20423;-60
2021/08/19 11:06:22;;;;;;;6.00;5.70;;;25.00;88.70;;;;;;4987991;28;20622;-59
2021/08/19 11:08:54;;;;;;;5.40;5.10;;;25.00;88.90;;;;;;5003391;28;20475;-59
2021/08/19 11:11:30;;;;;;;6.80;6.40;;;25.00;88.50;;;;;;4984904;28;20564;-60
2021/08/19 11:14:26;;;;;;;6.63;6.03;;;25.00;88.70;;;;;;4982418;28;20407;-60
2021/08/19 11:16:56;;;;;;;6.03;5.73;;;25.00;89.50;;;;;;4999800;28;20418;-60
2021/08/19 11:19:28;;;;;;;6.40;6.00;;;24.80;88.90;;;;;;5008763;28;20757;-61
2021/08/19 11:22:00;;;;;;;6.20;5.90;;;24.70;89.50;;;;;;4989891;28;20448;-61
2021/08/19 11:24:30;;;;;;;7.10;6.63;;;24.70;90.00;;;;;;4984388;28;20410;-59
2021/08/19 11:27:06;;;;;;;6.63;6.17;;;24.90;90.30;;;;;;4998834;28;20443;-59
2021/08/19 11:29:38;;;;;;;6.93;6.40;;;25.20;89.30;;;;;;5011642;28;20446;-60
2021/08/19 11:32:14;;;;;;;6.83;6.23;;;25.50;89.80;;;;;;5004988;28;20775;-62
2021/08/19 11:34:49;;;;;;;6.50;6.10;;;25.80;88.50;;;;;;5005655;28;20437;-60
2021/08/19 11:37:31;;;;;;;6.60;6.27;;;25.80;88.00;;;;;;4995640;28;20406;-60
2021/08/19 11:39:59;;;;;;;6.50;6.10;;;25.90;87.70;;;;;;5007303;28;20439;-59
2021/08/19 11:42:30;;;;;;;5.33;5.13;;;25.90;86.80;;;;;;5013900;28;20454;-61
2021/08/19 11:45:25;;;;;;;5.80;5.40;;;25.90;86.80;;;;;;5008165;28;20757;-60
2021/08/19 11:47:52;;;;;;;5.73;5.53;;;25.70;85.90;;;;;;4996480;28;20416;-60
2021/08/19 11:50:24;;;;;;;6.17;5.83;;;25.60;86.90;;;;;;5007139;28;20426;-60
2021/08/19 11:53:00;;;;;;;7.63;7.23;;;26.00;87.70;;;;;;4999144;28;20692;-60
2021/08/19 11:55:32;;;;;;;5.70;5.40;;;26.30;86.20;;;;;;4998527;28;20410;-60
2021/08/19 11:58:19;;;;;;;6.43;5.87;;;26.50;85.80;;;;;;4999209;28;20414;-60
2021/08/19 12:01:08;;;;;;;6.30;5.80;;;26.70;84.40;;;;;;4993159;28;20622;-59
2021/08/19 12:03:39;;;;;;;6.33;5.93;;;26.80;84.00;;;;;;5006440;28;20450;-60
2021/08/19 12:06:08;;;;;;;6.47;5.87;;;27.30;83.60;;;;;;4987879;28;20517;-60
2021/08/19 12:08:46;;;;;;;6.67;6.13;;;27.10;81.00;;;;;;5005140;28;20779;-61
2021/08/19 12:11:25;;;;;;;6.40;5.60;;;27.10;81.20;;;;;;4991456;28;20412;-61
2021/08/19 12:14:05;;;;;;;6.30;5.90;;;27.00;81.30;;;;;;4979417;28;20686;-61
2021/08/19 12:16:33;;;;;;;6.73;6.33;;;26.90;81.70;;;;;;4988428;28;20490;-60
2021/08/19 12:19:03;;;;;;;6.10;5.57;;;26.90;81.40;;;;;;4999480;28;20747;-61
2021/08/19 12:21:31;;;;;;;6.40;6.10;;;26.70;82.30;;;;;;4992932;28;20449;-60
2021/08/19 12:24:11;;;;;;;13.70;6.67;;;26.50;82.40;;;;;;5003199;28;20414;-61
2021/08/19 12:26:39;;;;;;;5.87;5.57;;;26.30;82.80;;;;;;4981387;28;20755;-60
2021/08/19 12:29:06;;;;;;;5.60;5.30;;;26.10;83.10;;;;;;4982141;28;20462;-61
2021/08/19 12:31:51;;;;;;;6.37;5.93;;;26.00;83.70;;;;;;4996906;28;20497;-60
2021/08/19 12:34:19;;;;;;;6.80;6.40;;;25.80;84.90;;;;;;5009741;28;20468;-61
2021/08/19 12:36:47;;;;;;;5.87;5.37;;;25.70;85.80;;;;;;5014668;28;20435;-60
2021/08/19 12:39:26;;;;;;;8.90;8.00;;;25.50;85.40;;;;;;5013817;28;20439;-59
2021/08/19 12:42:14;;;;;;;5.60;5.30;;;25.40;86.70;;;;;;5004340;28;20482;-61
2021/08/19 12:45:01;;;;;;;6.17;5.77;;;25.30;86.80;;;;;;4998254;28;20442;-60
2021/08/19 12:47:42;;;;;;;5.47;5.27;;;25.30;87.50;;;;;;5007367;28;20405;-59
2021/08/19 12:50:10;;;;;;;5.90;5.60;;;25.40;87.10;;;;;;4997782;28;20569;-59
2021/08/19 12:52:37;;;;;;;5.70;5.40;;;25.20;88.00;;;;;;4998403;28;20479;-59
2021/08/19 12:55:08;;;;;;;6.33;5.70;;;25.00;89.10;;;;;;4983839;28;20440;-59
2021/08/19 12:57:40;;;;;;;6.30;5.97;;;24.80;90.00;;;;;;4997676;28;20485;-60